Latest Weather Observations for Kalgoorlie-Boulder

IDW60801

Issued at 4:43 pm WST Wednesday 10 August 2022 (issued every 10 minutes, with the page automatically refreshed every 10 minutes)

About weather observations | Map of weather stations | Latest weather observations for WA | Other Formats
Station Details ID: 012038 Name: KALGOORLIE-BOULDER AIRPORT Lat: -30.78 Lon: 121.45 Height: 365.3 m
Data from the previous 72 hours. | See also: Recent months at Kalgoorlie-Boulder
Date/Time
WST
Temp
°C
App
Temp
°C
Dew
Point
°C
Rel
Hum
%
Delta-T
°C
Wind Press
QNH
hPa
Press
MSL
hPa
Rain since
9am
mm
Dir  Spd
km/h
Gust
km/h
Spd
kts
Gust
kts
10/04:30pm 13.6 6.3 -0.1 39 5.8 SW 28 39 15 21 1019.3 1019.3 0.2
10/04:00pm 13.7 6.1 0.4 40 5.7 WSW 30 41 16 22 1019.1 1019.0 0.2
10/03:30pm 12.9 6.0 0.3 42 5.4 SW 26 33 14 18 1019.3 1019.3 0.2
10/03:00pm 14.3 7.5 0.6 39 5.9 SW 26 41 14 22 1019.1 1019.0 0.2
10/02:30pm 12.6 5.8 0.7 44 5.1 WSW 26 35 14 19 1019.1 1019.0 0.2
10/02:00pm 13.0 5.5 1.0 44 5.2 SW 30 39 16 21 1019.1 1019.0 0.2
10/01:30pm 13.1 6.3 0.5 42 5.4 SW 26 35 14 19 1018.8 1018.7 0.2
10/01:00pm 13.6 5.4 0.6 41 5.6 WSW 33 44 18 24 1018.9 1018.8 0.2
10/12:30pm 12.9 5.4 1.3 45 5.0 SW 30 41 16 22 1019.1 1019.0 0.0
10/12:04pm 12.8 5.7 1.2 45 5.0 WSW 28 52 15 28 1019.5 1019.5 0.0
10/12:00pm 13.2 6.2 2.1 47 4.9 SW 28 41 15 22 1019.5 1019.5 0.0
10/11:50am 11.9 4.8 1.3 48 4.6 SW 28 46 15 25 1019.5 1019.5 0.0
10/11:30am 12.2 5.6 1.8 49 4.5 SW 26 41 14 22 1019.6 1019.6 0.0
10/11:00am 11.9 4.4 1.5 49 4.5 WSW 30 41 16 22 1019.7 1019.7 0.0
10/10:30am 11.4 4.1 2.4 54 4.0 WSW 30 41 16 22 1019.8 1019.8 0.0
10/10:00am 10.7 3.8 2.5 57 3.6 WSW 28 39 15 21 1019.8 1019.8 0.0
10/09:30am 9.3 2.8 2.6 63 2.9 WSW 26 37 14 20 1019.8 1019.8 0.0
10/09:00am 8.6 2.6 3.2 69 2.4 WSW 24 35 13 19 1019.9 1019.9 0.0
10/08:30am 7.2 1.9 3.1 75 1.8 W 20 32 11 17 1019.8 1019.8 0.0
10/08:00am 6.1 1.0 3.1 81 1.3 W 19 28 10 15 1019.5 1019.5 0.0
10/07:30am 5.2 0.1 3.1 86 0.9 WNW 19 28 10 15 1019.2 1019.1 0.0
10/07:00am 4.5 0.5 2.8 89 0.7 W 13 17 7 9 1018.8 1018.7 0.0
10/06:30am 4.3 0.6 2.5 88 0.7 W 11 17 6 9 1018.6 1018.5 0.0
10/06:00am 4.5 0.0 2.4 86 0.9 WSW 15 26 8 14 1017.9 1017.8 0.0
10/05:30am 4.8 0.4 2.5 85 1.0 W 15 19 8 10 1017.5 1017.4 0.0
10/05:00am 5.0 0.5 2.4 83 1.1 W 15 20 8 11 1016.9 1016.8 0.0
10/04:30am 5.5 0.7 2.5 81 1.3 W 17 22 9 12 1016.7 1016.6 0.0
10/04:00am 6.0 0.3 2.6 79 1.4 WSW 22 35 12 19 1016.3 1016.2 0.0
10/03:30am 6.3 1.0 2.8 78 1.5 WSW 20 35 11 19 1016.3 1016.2 0.0
10/03:00am 6.6 0.9 2.9 77 1.6 WSW 22 33 12 18 1016.1 1016.0 0.0
10/02:30am 6.6 1.2 2.7 76 1.7 WSW 20 28 11 15 1016.1 1016.0 0.0
10/02:00am 7.2 1.6 3.3 76 1.7 WSW 22 33 12 18 1016.0 1015.9 0.0
10/01:30am 7.1 1.5 3.2 76 1.7 W 22 30 12 16 1015.8 1015.7 0.0
10/01:00am 7.2 3.4 3.8 79 1.5 WSW 13 17 7 9 1015.7 1015.6 0.0
10/12:30am 7.0 2.9 4.1 82 1.3 WSW 15 20 8 11 1015.4 1015.3 0.0
10/12:00am 7.1 2.0 4.1 81 1.3 W 20 28 11 15 1015.3 1015.2 0.0
 
Date/Time
WST
Temp
°C
App
Temp
°C
Dew
Point
°C
Rel
Hum
%
Delta-T
°C
Wind Press
QNH
hPa
Press
MSL
hPa
Rain since
9am
mm
Dir  Spd
km/h
Gust
km/h
Spd
kts
Gust
kts
09/11:30pm 7.4 3.1 3.3 75 1.8 WNW 15 20 8 11 1015.1 1015.0 0.0
09/11:00pm 7.2 2.1 3.3 76 1.7 W 19 30 10 16 1014.8 1014.7 0.0
09/10:30pm 7.2 1.9 3.1 75 1.8 W 20 28 11 15 1014.4 1014.3 0.0
09/10:00pm 7.5 2.8 3.2 74 1.9 W 17 26 9 14 1014.4 1014.3 0.0
09/09:30pm 7.9 3.2 3.2 72 2.0 W 17 24 9 13 1014.2 1014.1 0.0
09/09:00pm 8.2 2.6 3.5 72 2.1 W 22 32 12 17 1014.1 1014.0 0.0
09/08:30pm 8.1 3.9 3.8 74 1.9 W 15 20 8 11 1013.9 1013.8 0.0
09/08:00pm 8.3 4.1 3.6 72 2.1 W 15 20 8 11 1013.3 1013.2 0.0
09/07:30pm 8.7 3.6 3.3 69 2.4 W 19 28 10 15 1012.9 1012.8 0.0
09/07:00pm 8.8 3.2 3.2 68 2.5 W 22 32 12 17 1012.5 1012.4 0.0
09/06:30pm 9.3 2.5 2.9 64 2.8 W 28 41 15 22 1012.1 1011.9 0.0
09/06:00pm 9.6 2.4 2.9 63 2.9 W 30 44 16 24 1011.3 1011.2 0.0
09/05:34pm 10.2 2.3 2.3 58 3.4 W 33 52 18 28 1010.8 1010.7 0.0
09/05:30pm 10.4 2.2 2.5 58 3.5 W 35 52 19 28 1010.7 1010.6 0.0
09/05:24pm 10.5 3.3 2.8 59 3.4 W 30 52 16 28 1010.5 1010.4 0.0
09/05:00pm 11.3 5.8 2.1 53 4.0 W 20 28 11 15 1010.2 1010.1 0.0
09/04:30pm 12.1 4.6 1.4 48 4.6 W 30 39 16 21 1009.6 1009.4 0.0
09/04:00pm 12.5 4.6 0.9 45 5.0 W 32 48 17 26 1009.2 1009.0 0.0
09/03:56pm 12.1 5.0 1.1 47 4.7 W 28 48 15 26 1009.1 1008.9 0.0
09/03:30pm 11.8 5.8 3.6 57 3.7 W 24 35 13 19 1009.0 1008.8 0.0
09/03:00pm 13.0 5.2 1.7 46 5.0 W 32 57 17 31 1008.8 1008.6 0.0
09/02:53pm 12.8 5.0 2.6 50 4.6 WSW 33 52 18 28 1008.6 1008.5 0.0
09/02:40pm 13.2 4.4 1.5 45 5.1 W 37 52 20 28 1008.6 1008.5 0.0
09/02:30pm 13.7 5.2 0.7 41 5.6 WNW 35 54 19 29 1008.3 1008.2 0.0
09/02:11pm 13.4 5.7 0.1 40 5.7 WNW 30 48 16 26 1008.2 1008.1 0.0
09/02:00pm 13.1 5.2 0.8 43 5.3 WNW 32 48 17 26 1008.2 1008.1 0.0
09/01:30pm 13.8 5.4 -1.0 36 6.2 WNW 33 48 18 26 1008.0 1007.9 0.0
09/01:00pm 14.5 6.4 -0.4 36 6.4 WNW 32 46 17 25 1008.2 1008.1 0.0
09/12:50pm 13.8 6.6 0.8 41 5.6 WNW 28 48 15 26 1008.2 1008.1 0.0
09/12:30pm 13.1 6.2 2.4 48 4.8 W 28 43 15 23 1008.5 1008.4 0.0
09/12:10pm 13.0 5.6 2.0 47 4.9 W 30 48 16 26 1009.0 1008.8 0.0
09/12:00pm 12.8 5.1 2.1 48 4.7 W 32 48 17 26 1009.0 1008.8 0.0
09/11:54am 13.2 6.2 2.1 47 4.9 WNW 28 48 15 26 1009.1 1008.9 0.0
09/11:30am 11.8 4.5 2.5 53 4.1 WNW 30 43 16 23 1009.7 1009.5 0.0
09/11:00am 11.4 5.8 3.7 59 3.5 WNW 22 35 12 19 1009.9 1009.7 0.0
09/10:30am 9.9 2.7 4.9 71 2.3 W 32 46 17 25 1010.3 1010.2 0.0
09/10:00am 11.8 6.3 3.8 58 3.7 WNW 22 30 12 16 1010.3 1010.2 0.0
09/09:30am 11.3 6.4 5.2 66 2.9 WNW 20 32 11 17 1010.7 1010.6 0.0
09/09:00am 11.7 7.6 6.2 69 2.6 WNW 17 26 9 14 1010.8 1010.7 0.0
09/08:30am 10.9 6.9 6.8 76 2.0 WNW 17 24 9 13 1010.7 1010.6 0.0
09/08:00am 9.8 6.9 6.7 81 1.5 WNW 11 17 6 9 1010.8 1010.7 0.0
09/07:30am 9.3 6.5 6.9 85 1.1 NW 11 15 6 8 1010.8 1010.7 0.0
09/07:00am 8.7 6.3 7.0 89 0.8 NNW 9 13 5 7 1010.4 1010.3 0.0
09/06:30am 8.3 5.9 7.1 92 0.6 NNW 9 13 5 7 1010.4 1010.3 0.0
09/06:00am 8.3 6.3 7.1 92 0.6 N 7 7 4 4 1010.0 1009.9 0.0
09/05:30am 8.7 6.7 7.3 91 0.7 NNW 7 9 4 5 1010.0 1009.9 0.0
09/05:00am 8.6 6.8 7.1 90 0.7 NW 6 7 3 4 1009.9 1009.7 0.0
09/04:30am 8.8 6.5 7.3 90 0.7 WNW 9 11 5 6 1009.8 1009.6 0.0
09/04:00am 9.3 7.3 7.3 87 1.0 W 7 9 4 5 1009.6 1009.4 0.0
09/03:59am 9.3 7.3 7.3 87 1.0 W 7 11 4 6 1009.6 1009.4 0.0
09/03:30am 10.4 6.7 7.8 84 1.3 WSW 17 22 9 12 1009.8 1009.6 0.0
09/03:25am 10.4 6.7 8.0 85 1.2 WSW 17 24 9 13 1009.8 1009.6 0.0
09/03:00am 10.0 7.1 6.7 80 1.6 W 11 15 6 8 1010.0 1009.9 0.0
09/02:30am 9.7 6.3 5.9 77 1.8 W 13 15 7 8 1010.5 1010.4 0.0
09/02:00am 9.6 6.9 5.4 75 2.0 W 9 13 5 7 1010.5 1010.4 0.0
09/01:30am 9.8 6.5 4.4 69 2.5 WSW 11 15 6 8 1010.5 1010.4 0.0
09/01:00am 10.3 6.7 3.1 61 3.2 W 11 13 6 7 1010.6 1010.5 0.0
09/12:30am 11.2 6.9 3.0 57 3.7 W 15 20 8 11 1010.7 1010.6 0.0
09/12:00am 10.7 6.6 2.3 56 3.7 W 13 19 7 10 1010.9 1010.8 0.0
 
Date/Time
WST
Temp
°C
App
Temp
°C
Dew
Point
°C
Rel
Hum
%
Delta-T
°C
Wind Press
QNH
hPa
Press
MSL
hPa
Rain since
9am
mm
Dir  Spd
km/h
Gust
km/h
Spd
kts
Gust
kts
08/11:30pm 10.2 7.2 0.8 52 3.9 NNW 6 7 3 4 1011.0 1010.9 0.0
08/11:00pm 11.3 8.1 0.7 48 4.5 NNW 7 9 4 5 1011.2 1011.1 0.0
08/10:30pm 12.5 8.9 0.9 45 5.0 NW 9 13 5 7 1011.4 1011.3 0.0
08/10:00pm 12.4 8.4 0.8 45 5.0 NW 11 13 6 7 1011.7 1011.5 0.0
08/09:30pm 12.4 8.9 1.4 47 4.8 WNW 9 13 5 7 1011.7 1011.5 0.0
08/09:00pm 11.5 8.6 1.5 50 4.3 NNW 6 7 3 4 1011.8 1011.6 0.0
08/08:30pm 12.6 9.6 1.0 45 5.0 NW 6 7 3 4 1011.8 1011.6 0.0
08/08:00pm 14.0 10.7 0.3 39 5.9 NW 7 9 4 5 1011.8 1011.6 0.0
08/07:30pm 15.5 12.2 0.1 35 6.7 NW 7 9 4 5 1011.9 1011.7 0.0
08/07:00pm 16.0 12.3 0.2 34 6.9 WNW 9 13 5 7 1011.8 1011.6 0.0
08/06:30pm 16.6 12.9 -0.1 32 7.3 NW 9 13 5 7 1011.5 1011.4 0.0
08/06:00pm 17.6 14.2 -0.6 29 7.9 NNW 7 9 4 5 1011.2 1011.1 0.0
08/05:30pm 19.0 14.7 -1.4 25 8.9 NW 11 17 6 9 1011.3 1011.2 0.0
08/05:00pm 20.7 14.9 -1.8 22 9.9 NNW 19 26 10 14 1011.2 1011.1 0.0
08/04:30pm 21.4 15.6 -1.8 21 10.2 NNW 19 30 10 16 1011.3 1011.2 0.0
08/04:00pm 21.6 15.8 -1.6 21 10.3 NNW 19 24 10 13 1011.3 1011.2 0.0
08/03:30pm 22.2 15.5 -1.1 21 10.5 NNW 24 35 13 19 1011.5 1011.4 0.0
08/03:00pm 22.2 16.3 -0.5 22 10.3 NW 20 32 11 17 1011.7 1011.5 0.0
08/02:30pm 21.5 15.1 0.7 25 9.6 NNW 24 35 13 19 1012.1 1011.9 0.0
08/02:00pm 21.6 15.8 0.2 24 9.8 NW 20 32 11 17 1012.6 1012.5 0.0
08/01:30pm 21.3 14.3 -0.6 23 9.9 NNW 26 39 14 21 1012.9 1012.8 0.0
08/01:00pm 21.3 14.9 1.0 26 9.4 N 24 33 13 18 1013.3 1013.2 0.0
08/12:30pm 20.7 16.2 2.0 29 8.8 N 15 28 8 15 1014.0 1013.9 0.0
08/12:00pm 20.3 15.5 4.4 35 7.8 N 19 26 10 14 1014.9 1014.8 0.0
08/11:30am 19.6 15.5 4.1 36 7.5 N 15 20 8 11 1015.6 1015.5 0.0
08/11:00am 18.1 13.9 3.9 39 6.8 N 15 20 8 11 1016.4 1016.3 0.0
08/10:30am 16.9 13.7 5.2 46 5.7 N 11 17 6 9 1017.0 1017.0 0.0
08/10:00am 15.2 11.9 6.2 55 4.4 N 13 19 7 10 1017.6 1017.5 0.0
08/09:30am 13.6 9.9 6.5 62 3.5 NNE 15 20 8 11 1017.9 1017.8 0.0
08/09:00am 12.8 10.5 7.3 69 2.7 NNE 9 15 5 8 1017.8 1017.7 0.0
08/08:30am 11.4 8.4 7.9 79 1.7 N 13 17 7 9 1017.9 1017.8 0.0
08/08:00am 9.4 7.2 7.7 89 0.8 N 9 13 5 7 1018.0 1017.9 0.0
08/07:30am 7.6 5.7 7.5 99 0.0 N 7 9 4 5 1017.9 1017.8 0.0
08/07:00am 5.9 3.6 5.8 99 0.0 N 7 9 4 5 1017.7 1017.6 0.0
08/06:30am 6.4 4.2 6.3 99 0.0 N 7 9 4 5 1017.5 1017.4 0.0
08/06:00am 6.4 3.8 6.0 97 0.2 NNW 9 11 5 6 1017.3 1017.3 0.0
08/05:30am 7.3 5.3 7.0 98 0.1 N 7 9 4 5 1017.5 1017.4 0.0
08/05:00am 7.2 5.1 6.8 97 0.2 NNE 7 9 4 5 1017.5 1017.4 0.0
08/04:30am 7.9 5.2 7.5 97 0.2 NNE 11 17 6 9 1017.5 1017.4 0.0
08/04:00am 6.7 4.5 6.1 96 0.3 N 7 11 4 6 1017.3 1017.3 0.0
08/03:30am 7.4 5.0 6.8 96 0.3 N 9 11 5 6 1017.5 1017.4 0.0
08/03:00am 8.0 5.7 7.6 97 0.2 NNE 9 13 5 7 1017.6 1017.5 0.0
08/02:30am 7.2 5.1 6.8 97 0.2 N 7 11 4 6 1017.7 1017.6 0.0
08/02:00am 6.8 4.6 6.2 96 0.3 N 7 9 4 5 1017.9 1017.8 0.0
08/01:30am 6.8 4.6 6.2 96 0.3 NNW 7 9 4 5 1018.0 1017.9 0.0
08/01:00am 7.3 6.2 6.7 96 0.3 N 2 7 1 4 1018.4 1018.3 0.0
08/12:30am 7.8 6.0 7.1 95 0.3 SSE 6 7 3 4 1018.5 1018.4 0.0
08/12:00am 8.3 6.6 7.7 96 0.3 SSE 6 6 3 3 1018.6 1018.5 0.0
 
Date/Time
WST
Temp
°C
App
Temp
°C
Dew
Point
°C
Rel
Hum
%
Delta-T
°C
Wind Press
QNH
hPa
Press
MSL
hPa
Rain since
9am
mm
Dir  Spd
km/h
Gust
km/h
Spd
kts
Gust
kts
07/11:30pm 8.4 6.6 7.2 92 0.6 SE 6 7 3 4 1018.8 1018.7 0.0
07/11:00pm 8.7 6.9 7.0 89 0.8 SSE 6 9 3 5 1018.8 1018.7 0.0
07/10:30pm 9.3 7.6 7.4 88 0.9 SSE 6 7 3 4 1018.7 1018.6 0.0
07/10:00pm 9.2 7.3 7.5 89 0.8 SSE 7 9 4 5 1018.9 1018.8 0.0
07/09:30pm 9.3 8.7 7.3 87 1.0 CALM 0 0 0 0 1019.0 1018.9 0.0
07/09:00pm 10.1 8.8 7.5 84 1.3 S 4 6 2 3 1019.0 1018.9 0.0
07/08:30pm 11.5 9.9 8.0 79 1.7 S 6 7 3 4 1018.9 1018.8 0.0
07/08:00pm 12.4 9.9 8.3 76 2.1 SSW 11 15 6 8 1018.7 1018.6 0.0
07/07:30pm 13.3 9.3 8.4 72 2.5 SSW 19 24 10 13 1018.3 1018.2 0.0
07/07:00pm 13.9 10.2 7.9 67 3.0 SSW 17 22 9 12 1017.9 1017.8 0.0
07/06:30pm 15.3 10.7 6.6 56 4.3 SW 20 28 11 15 1017.3 1017.3 0.0
07/06:00pm 15.7 12.1 3.2 43 5.8 SW 11 15 6 8 1016.7 1016.6 0.0
07/05:30pm 17.3 13.2 2.1 36 7.0 W 13 19 7 10 1016.4 1016.3 0.0
07/05:00pm 18.3 14.4 1.3 32 7.7 W 11 20 6 11 1016.1 1016.0 0.0

Other formats

Comma delimited format used in spreadsheet applications
http://www.bom.gov.au/fwo/IDW60801/IDW60801.94637.axf

JavaScript Object Notation format (JSON) in row-major order
http://www.bom.gov.au/fwo/IDW60801/IDW60801.94637.json

Data quality

Most of these data are generated automatically and are frequently updated. Quality checks on data are not normally performed. It is possible for incorrect values to appear. Refer to information at About Latest Weather Observations and please check the disclaimer before using these data.